Latest Weather Observations for Coen Airport

IDQ60801

Issued at 1:02 pm EST Tuesday 24 January 2017 (issued every 30 minutes, with the page automatically refreshed every 10 minutes)

About weather observations | Map of weather stations | Latest weather observations for QLD | Other Formats
Station Details ID: 027073 Name: COEN AIRPORT Lat: -13.76 Lon: 143.12 Height: 159.3 m
Data from the previous 72 hours. | See also: Recent months at Coen Airport
Date/Time
EST
Temp
°C
App
Temp
°C
Dew
Point
°C
Rel
Hum
%
Delta-T
°C
Wind Press
QNH
hPa
Press
MSL
hPa
Rain since
9am
mm
Dir  Spd
km/h
Gust
km/h
Spd
kts
Gust
kts
24/01:00pm 32.7 35.6 22.5 55 7.0 N 11 22 6 12 1010.5 - 0.2
24/12:30pm 31.8 33.8 21.6 54 6.9 NNE 13 20 7 11 1011.0 - 0.2
24/12:00pm 31.8 32.9 21.9 55 6.8 NNE 19 - 10 - - 1010.5 -
24/11:30am 31.3 33.7 22.9 61 5.8 N 15 20 8 11 1012.1 - 0.2
24/11:00am 30.9 32.9 22.2 59 5.9 NNE 15 24 8 13 1012.3 - 0.2
24/10:30am 30.5 33.2 22.9 64 5.2 NNE 13 19 7 10 1012.4 - 0.2
24/10:00am 30.5 33.2 22.9 64 5.2 NE 13 20 7 11 1012.6 - 0.2
24/09:30am 29.1 31.0 22.8 69 4.3 NNE 17 24 9 13 1012.9 - 0.2
24/09:00am 28.1 30.9 23.0 74 3.5 NE 13 19 7 10 1012.9 1011.9 2.0
24/08:30am 27.5 30.9 23.3 78 2.9 NNE 11 15 6 8 1012.9 - 2.0
24/08:00am 26.2 30.0 22.7 81 2.4 NNE 7 9 4 5 1012.5 - 2.0
24/07:30am 25.5 29.2 22.6 84 2.0 N 7 9 4 5 1012.5 - 2.0
24/07:00am 24.1 29.1 22.5 91 1.1 CALM 0 0 0 0 1012.1 - 2.0
24/06:30am 22.9 27.7 22.1 95 0.5 CALM 0 0 0 0 1011.6 - 2.0
24/06:00am 22.9 27.7 22.1 95 0.5 CALM 0 0 0 0 1011.2 1010.1 2.0
24/05:30am 22.8 26.1 21.8 94 0.7 SE 7 9 4 5 1010.6 - 2.0
24/05:00am 22.9 26.4 21.9 94 0.7 SE 6 9 3 5 1010.7 - 2.0
24/04:30am 23.1 26.3 22.3 95 0.5 SE 9 11 5 6 1010.7 - 2.0
24/04:00am 23.3 28.2 22.3 94 0.7 CALM 0 0 0 0 1010.6 - 2.0
24/03:30am 23.3 27.8 22.3 94 0.7 SE 2 7 1 4 1010.5 - 2.0
24/03:00am 23.5 28.4 22.3 93 0.8 CALM 0 0 0 0 1010.4 1009.4 2.0
24/02:30am 23.6 28.7 22.6 94 0.7 CALM 0 0 0 0 1010.7 - 2.0
24/02:00am 23.6 28.3 22.6 94 0.7 E 2 7 1 4 1010.8 - 2.0
24/01:30am 23.6 27.5 22.6 94 0.7 ENE 6 7 3 4 1011.4 - 2.0
24/01:00am 23.5 27.4 22.5 94 0.7 E 6 7 3 4 1012.1 - 2.0
24/12:30am 23.7 28.8 22.7 94 0.7 CALM 0 0 0 0 1012.5 - 2.0
24/12:00am 23.8 28.9 22.6 93 0.8 CALM 0 0 0 0 1012.6 1011.6 2.0
 
Date/Time
EST
Temp
°C
App
Temp
°C
Dew
Point
°C
Rel
Hum
%
Delta-T
°C
Wind Press
QNH
hPa
Press
MSL
hPa
Rain since
9am
mm
Dir  Spd
km/h
Gust
km/h
Spd
kts
Gust
kts
23/11:30pm 23.7 28.7 22.5 93 0.8 CALM 0 0 0 0 1012.6 - 2.0
23/11:00pm 23.6 28.3 22.6 94 0.7 SE 2 7 1 4 1012.2 - 2.0
23/10:30pm 23.5 28.5 22.5 94 0.7 CALM 0 0 0 0 1011.8 - 2.0
23/10:00pm 23.3 26.9 22.3 94 0.7 N 7 11 4 6 1011.4 - 2.0
23/09:30pm 23.4 26.3 21.8 91 1.1 NNW 9 13 5 7 1011.0 - 2.0
23/09:00pm 23.6 26.7 21.5 88 1.4 ESE 7 9 4 5 1010.4 1009.4 2.0
23/08:30pm 23.7 26.0 22.0 90 1.1 ESE 13 17 7 9 1010.2 - 2.0
23/08:00pm 23.6 26.6 22.0 91 1.1 ESE 9 15 5 8 1010.5 - 2.0
23/07:30pm 23.8 27.3 22.8 94 0.7 SE 9 13 5 7 1011.0 - 2.0
23/07:00pm 23.9 28.5 22.5 92 0.9 NW 2 6 1 3 1011.1 - 2.0
23/06:30pm 23.9 27.7 22.7 93 0.8 NNW 7 13 4 7 1011.1 - 2.0
23/06:00pm 24.1 27.8 23.2 95 0.6 NNW 9 15 5 8 1010.8 1009.7 1.8
23/05:30pm 24.4 26.7 23.4 94 0.7 N 17 24 9 13 1010.5 - 0.6
23/05:00pm 24.6 27.4 23.0 91 1.1 N 13 19 7 10 1010.3 - 0.4
23/04:30pm 25.7 28.0 22.8 84 2.0 N 15 20 8 11 1010.0 - 0.4
23/04:00pm 26.1 28.4 22.8 82 2.2 NNW 15 20 8 11 1009.3 - 0.4
23/03:30pm 26.7 28.3 22.8 79 2.7 WNW 19 26 10 14 1009.5 - 0.4
23/03:00pm 26.9 27.7 22.5 77 3.0 WNW 22 28 12 15 1009.8 1008.8 0.4
23/02:30pm 29.2 33.9 21.9 64 4.9 CALM 0 6 0 3 1009.5 - 0.4
23/02:00pm 28.7 31.5 21.5 65 4.8 E 9 13 5 7 1009.7 - 0.4
23/01:30pm 29.0 31.5 21.7 64 4.9 NE 11 20 6 11 1010.1 - 0.4
23/01:00pm 30.1 32.4 23.5 67 4.6 ENE 17 26 9 14 1010.2 - 0.4
23/12:30pm 30.1 32.3 23.3 67 4.7 E 17 26 9 14 1010.2 - 0.2
23/12:00pm 28.4 30.9 23.1 73 3.6 E 15 24 8 13 1010.4 1009.4 0.2
23/11:30am 27.6 29.9 23.4 78 2.9 E 17 24 9 13 1010.6 - 0.2
23/11:00am 28.9 32.7 24.0 75 3.4 WNW 11 15 6 8 1010.7 - 0.2
23/10:30am 27.0 28.5 23.7 82 2.3 NNW 22 33 12 18 1011.1 - 0.0
23/10:00am 29.8 32.5 22.8 66 4.8 NW 13 17 7 9 1011.4 - 0.0
23/09:30am 29.1 32.6 22.8 69 4.3 WNW 9 15 5 8 1011.7 - 0.0
23/09:00am 28.6 33.0 22.8 71 4.0 ENE 4 9 2 5 1011.5 1010.5 2.0
23/08:30am 27.8 32.8 23.2 76 3.2 SSE 2 6 1 3 1011.3 - 2.0
23/08:00am 26.1 31.3 22.8 82 2.2 CALM 0 0 0 0 1011.2 - 2.0
23/07:30am 24.7 29.6 22.4 87 1.6 CALM 0 0 0 0 1010.7 - 2.0
23/07:00am 23.7 28.7 22.5 93 0.8 CALM 0 0 0 0 1010.4 - 2.0
23/06:30am 23.4 27.0 22.4 94 0.7 SE 7 9 4 5 1009.6 - 2.0
23/06:00am 23.3 27.4 22.3 94 0.7 SE 4 7 2 4 1009.2 1008.2 2.0
23/05:30am 23.2 26.5 22.5 96 0.5 SE 9 11 5 6 1008.7 - 2.0
23/05:00am 23.2 27.0 22.4 95 0.5 SE 6 9 3 5 1008.6 - 2.0
23/04:30am 23.0 26.7 22.3 96 0.5 SE 6 9 3 5 1008.7 - 1.8
23/04:00am 23.1 27.6 22.3 95 0.5 E 2 9 1 5 1008.5 - 1.8
23/03:30am 23.2 27.0 22.4 95 0.5 ESE 6 7 3 4 1008.7 - 1.8
23/03:00am 23.4 28.5 22.6 95 0.5 CALM 0 0 0 0 1008.9 1007.9 1.8
23/02:30am 23.3 27.9 22.5 95 0.5 E 2 6 1 3 1008.9 - 1.8
23/02:00am 23.5 28.5 22.5 94 0.7 CALM 0 0 0 0 1009.0 - 1.8
23/01:30am 23.6 28.7 22.6 94 0.7 CALM 0 0 0 0 1009.6 - 1.8
23/01:00am 23.8 29.0 22.8 94 0.7 CALM 0 6 0 3 1010.1 - 1.8
23/12:30am 23.9 28.4 22.9 94 0.7 ESE 4 6 2 3 1010.2 - 1.8
23/12:00am 24.0 29.2 22.8 93 0.8 CALM 0 0 0 0 1010.4 1009.4 1.8
 
Date/Time
EST
Temp
°C
App
Temp
°C
Dew
Point
°C
Rel
Hum
%
Delta-T
°C
Wind Press
QNH
hPa
Press
MSL
hPa
Rain since
9am
mm
Dir  Spd
km/h
Gust
km/h
Spd
kts
Gust
kts
22/11:30pm 24.1 28.7 23.1 94 0.7 ENE 4 9 2 5 1010.7 - 1.8
22/11:00pm 24.2 29.5 23.0 93 0.8 CALM 0 0 0 0 1010.7 - 1.8
22/10:30pm 24.3 29.5 22.9 92 0.9 CALM 0 0 0 0 1010.5 - 1.8
22/10:00pm 24.3 28.5 23.1 93 0.8 NE 6 7 3 4 1010.2 - 1.8
22/09:30pm 24.2 28.2 22.8 92 0.9 NE 6 9 3 5 1010.4 - 1.8
22/09:00pm 24.4 28.4 22.8 91 1.1 N 6 7 3 4 1010.3 1009.3 1.8
22/08:30pm 24.4 29.6 22.8 91 1.1 CALM 0 0 0 0 1010.3 - 1.8
22/08:00pm 24.3 28.6 22.6 90 1.1 NNW 4 11 2 6 1010.4 - 1.8
22/07:30pm 24.2 28.8 22.5 90 1.1 S 2 7 1 4 1010.1 - 1.8
22/07:00pm 24.4 28.7 21.9 86 1.7 W 2 9 1 5 1009.4 - 1.8
22/06:30pm 24.4 29.3 22.3 88 1.4 CALM 0 0 0 0 1009.0 - 1.8
22/06:00pm 24.6 28.8 22.5 88 1.4 SW 4 11 2 6 1009.1 1008.0 1.8
22/05:30pm 25.0 29.1 22.3 85 1.8 SW 4 9 2 5 1008.9 - 1.6
22/05:00pm 25.4 27.5 22.5 84 2.0 NW 15 32 8 17 1008.1 - 1.0
22/04:30pm 29.6 30.1 22.6 66 4.8 NNE 24 32 13 17 1007.2 - 0.6
22/04:00pm 32.8 36.4 22.0 53 7.4 NW 6 17 3 9 1006.6 - 0.6
22/03:30pm 33.4 37.0 23.7 56 6.8 W 11 19 6 10 1006.9 - 0.6
22/03:00pm 32.3 35.7 22.7 57 6.6 W 9 15 5 8 1007.0 1006.1 0.6
22/02:30pm 31.9 35.2 23.2 60 6.0 SW 11 19 6 10 1007.7 - 0.6
22/02:00pm 31.2 33.6 24.6 68 4.6 SW 20 28 11 15 1008.1 - 0.6
22/01:30pm 30.8 35.9 24.0 67 4.8 WNW 4 11 2 6 1008.5 - 0.4
22/01:00pm 28.9 33.0 23.3 72 3.9 SW 7 9 4 5 1009.0 - 0.4
22/12:30pm 28.4 29.4 22.9 72 3.8 NW 22 32 12 17 1009.2 - 0.0
22/12:00pm 30.5 33.4 22.4 62 5.5 WNW 11 15 6 8 1009.4 1008.4 0.0
22/11:30am 30.6 34.2 23.8 67 4.7 WNW 11 20 6 11 1009.8 - 0.0
22/11:00am 30.0 33.3 23.2 67 4.7 WNW 11 20 6 11 1010.4 - 0.0
22/10:30am 29.5 32.3 23.0 68 4.5 NW 13 20 7 11 1010.7 - 0.0
22/10:00am 28.3 31.6 23.2 74 3.5 W 11 17 6 9 1010.7 - 0.0
22/09:30am 28.1 32.2 23.9 78 2.9 NW 9 13 5 7 1010.7 - 0.0
22/09:00am 26.5 30.9 23.4 83 2.1 NNW 6 11 3 6 1011.1 1010.0 6.0
22/08:30am 26.1 30.5 23.8 87 1.6 NNW 7 11 4 6 1011.0 - 6.0
22/08:00am 25.1 29.4 23.3 90 1.2 NNW 6 7 3 4 1010.8 - 6.0
22/07:30am 24.6 30.1 23.4 93 0.8 CALM 0 0 0 0 1010.6 - 6.0
22/07:00am 24.1 28.5 23.4 96 0.5 NNW 6 9 3 5 1010.4 - 6.0
22/06:30am 23.9 29.4 23.4 97 0.3 CALM 0 0 0 0 1010.1 - 5.8
22/06:00am 23.8 29.4 23.5 98 0.2 CALM 0 0 0 0 1009.9 1008.8 5.8
22/05:30am 23.7 29.2 23.4 98 0.2 CALM 0 2 0 1 1009.6 - 5.8
22/05:00am 23.6 27.9 23.3 98 0.2 N 6 9 3 5 1009.3 - 5.8
22/04:30am 23.6 27.6 23.1 97 0.3 NNW 7 11 4 6 1009.3 - 5.8
22/04:00am 23.6 26.8 23.1 97 0.3 NNW 11 15 6 8 1009.3 - 5.8
22/03:30am 23.6 28.2 23.1 97 0.3 NNE 4 9 2 5 1009.3 - 5.8
22/03:00am 23.7 27.5 23.4 98 0.2 NNE 9 11 5 6 1009.4 1008.4 5.8
22/02:30am 23.6 27.9 23.3 98 0.2 NE 6 7 3 4 1009.5 - 5.8
22/02:00am 23.4 28.2 22.9 97 0.3 NE 2 7 1 4 1009.9 - 5.8
22/01:30am 23.5 28.4 23.0 97 0.3 NNW 2 6 1 3 1010.0 - 5.8
22/01:00am 23.6 27.6 23.1 97 0.3 NW 7 9 4 5 1010.1 - 5.8
22/12:30am 23.7 29.0 23.0 96 0.5 CALM 0 0 0 0 1010.2 - 5.8
22/12:00am 23.7 28.9 22.9 95 0.5 CALM 0 0 0 0 1010.1 1009.0 5.8
 
Date/Time
EST
Temp
°C
App
Temp
°C
Dew
Point
°C
Rel
Hum
%
Delta-T
°C
Wind Press
QNH
hPa
Press
MSL
hPa
Rain since
9am
mm
Dir  Spd
km/h
Gust
km/h
Spd
kts
Gust
kts
21/11:30pm 23.7 28.2 23.0 96 0.5 NE 4 7 2 4 1010.0 - 5.8
21/11:00pm 23.7 27.6 23.0 96 0.5 NNE 7 7 4 4 1009.9 - 5.6
21/10:30pm 23.8 27.7 22.9 95 0.6 NNE 7 9 4 5 1009.7 - 5.6
21/10:00pm 24.1 29.0 23.1 94 0.7 NE 2 6 1 3 1009.7 - 5.6
21/09:30pm 24.1 29.5 23.2 95 0.6 CALM 0 0 0 0 1009.4 - 5.6
21/09:00pm 24.2 28.8 23.2 94 0.7 NE 4 9 2 5 1009.0 1008.0 5.6
21/08:30pm 24.5 29.9 23.3 93 0.8 CALM 0 0 0 0 1008.6 - 5.6
21/08:00pm 24.3 27.7 23.3 94 0.7 ENE 11 15 6 8 1008.1 - 5.6
21/07:30pm 24.2 28.5 23.3 95 0.6 E 6 11 3 6 1008.8 - 5.6
21/07:00pm 24.3 29.7 23.3 94 0.7 CALM 0 0 0 0 1009.0 - 5.6
21/06:30pm 24.2 29.6 23.2 94 0.7 CALM 0 6 0 3 1009.4 - 5.4
21/06:00pm 24.1 27.7 23.1 94 0.7 N 9 13 5 7 1009.5 1008.5 5.4
21/05:30pm 24.0 27.6 23.1 95 0.6 E 9 15 5 8 1009.3 - 4.2
21/05:00pm 24.1 28.2 23.2 95 0.6 ENE 7 11 4 6 1009.1 - 3.4
21/04:30pm 24.1 27.0 23.1 94 0.7 NNE 13 17 7 9 1009.3 - 2.2
21/04:00pm 24.6 26.9 23.4 93 0.8 N 17 26 9 14 1009.4 - 0.8
21/03:30pm 25.1 25.8 23.0 88 1.4 N 24 37 13 20 1008.7 - 0.0
21/03:00pm 25.7 26.8 22.4 82 2.2 NNE 20 33 11 18 1008.4 1007.4 0.0
21/02:30pm 30.1 32.7 24.0 70 4.3 NW 17 24 9 13 1007.8 - 0.0
21/02:00pm 28.9 28.7 24.0 75 3.4 WNW 32 43 17 23 1008.0 - 0.0
21/01:45pm 31.0 29.9 23.4 64 5.3 WNW 35 41 19 22 1007.9 - 0.0
21/01:30pm 32.7 35.7 21.9 53 7.4 W 9 15 5 8 1007.9 - 0.0

Other Formats:

Comma delimited format used in spreadsheet applications
http://www.bom.gov.au/fwo/IDQ60801/IDQ60801.94183.axf

JavaScript Object Notation format (JSON) in row-major order
http://www.bom.gov.au/fwo/IDQ60801/IDQ60801.94183.json